Zaporizhia, Ukraine

11:54 AM EEST on June 29, 2017 (GMT +0300)
Zaporizhzhya | | Change Station

Elev 0 ft 47.84 °N, 35.14 °E | Updated 3 minutes ago

Mostly Cloudy
Mostly Cloudy
92.1 °F
Feels Like 94 °F
N
0.6
Wind Variable Wind from East
Gusts 1.2 mph

Today
High -- | Low -- °F
--% Chance of Precip.
Yesterday
High -- | Low -- °F
Precip. -- in
Pressure 29.86 in
Visibility 6.2 miles
Clouds Mostly Cloudy 5000 ft
Heat Index 94 °F
Dew Point 65 °F
Humidity 40%
Rainfall Not available.
Snow Depth Not available.
4:43 AM 8:42 PM
Waxing Crescent, 33% visible
METAR UKDE 290830Z VRB01MPS 9999 BKN050 31/19 Q1011 R02/210370 NOSIG
Pressure 29.86 in
Visibility 6.2 miles
Clouds Mostly Cloudy 5000 ft
Heat Index 94 °F
Dew Point 65 °F
Humidity 40%
Rainfall Not available.
Snow Depth Not available.
4:43 AM 8:42 PM
Waxing Crescent, 33% visible
METAR UKDE 290830Z VRB01MPS 9999 BKN050 31/19 Q1011 R02/210370 NOSIG

Get Severe Weather Alerts

Thanks for signing up!

Be on the lookout for a verification email in your inbox.

You'll start receiving the daily forecast at 6 AM.

×

10-Day Weather Forecast

×

Almanac

Astronomy

Jun. 29, 2017 Rise Set
Actual Time
Civil Twilight
Nautical Twilight
Astronomical Twilight
Moon
Length of Visible Light
Length of Day
Tomorrow will be .
, % of the Moon is Illuminated

Today's Extremes

Country Highs Country Lows

Community

WunderPhotos

Category 6

Welcome to Category 6. This is the collective home for Weather Underground's featured writeups by Dr. Jeff Masters (right), Bob Henson (left), Chris Burt, and other regular contributors.

Nearby

Air Quality

  Air Quality AQ Index Pollutant
Not available.

Snow Depth

Station Depth Elevation

Earthquake Activity

City Distance Mag. Time & Date
Minimum magnitude displayed is 2.5.

Coastal Water Temperatures

Place Temperature

Stations

Nearby Weather Stations

Station Location Temp. Windchill Dew Point Humidity Wind Precip. Elev Updated Type